Lehigh, Florida
Current Conditions -  °F | °C
As of 12:53 PM on Saturday 25 Oct 2014 (Local Time) from KRSW Reporting Station
Clear Clear  
Wind Chill: 78°   Ceiling: Unl
Heat Index: 79°   Visibility: 10mi
Dew Point: 57°   Wind: 9mph
Humidity: 48%   Direction: 10°N
Pressure: 29.96"   Gusts: NA
Location:  26.6076°N, 81.705°W
Report Text: KRSW 251653Z 01008KT 10SM CLR 26/14 A2996 RMK AO2 SLP143 T02560139
Loading
Personal Weather Stations






























Interactive Weather Map
Tropical Storm Tracking
New forecast layout! Learn more

10-Day Weather Forecast

Advertisements
Track Severe Weather on mobile